createdAt,value
2022-09-10T00:00:56.824Z,9.05
2022-09-10T00:05:58.789Z,11.50
2022-09-10T00:11:05.730Z,11.70
2022-09-10T00:16:11.242Z,11.95
2022-09-10T00:21:16.060Z,10.40
2022-09-10T00:26:26.699Z,12.68
2022-09-10T00:31:30.374Z,11.15
2022-09-10T00:36:41.908Z,11.35
2022-09-10T00:41:45.770Z,15.18
2022-09-10T00:46:50.861Z,11.35
2022-09-10T00:51:53.667Z,10.38
2022-09-10T00:56:59.394Z,15.15
2022-09-10T01:02:02.596Z,12.10
2022-09-10T01:07:07.571Z,14.65
2022-09-10T01:12:19.798Z,15.88
2022-09-10T01:17:26.094Z,16.27
2022-09-10T01:22:59.603Z,13.35
2022-09-10T01:28:08.727Z,13.75
2022-09-10T01:33:37.779Z,15.40
2022-09-10T01:38:41.957Z,16.33
2022-09-10T01:43:44.394Z,17.85
2022-09-10T01:48:54.047Z,14.07
2022-09-10T01:54:25.292Z,19.67
2022-09-10T01:59:34.350Z,16.88
2022-09-10T02:04:37.691Z,15.27
2022-09-10T02:09:40.443Z,18.85
2022-09-10T02:14:43.527Z,22.17
2022-09-10T02:19:58.893Z,15.13
2022-09-10T02:25:00.918Z,22.02
2022-09-10T02:30:03.160Z,19.88
2022-09-10T02:35:06.948Z,16.83
2022-09-10T02:40:10.755Z,20.33
2022-09-10T02:45:14.227Z,17.70
2022-09-10T02:50:16.408Z,23.70
2022-09-10T02:55:19.868Z,16.80
2022-09-10T03:00:22.602Z,24.67
2022-09-10T03:05:24.807Z,21.33
2022-09-10T03:10:26.920Z,22.33
2022-09-10T03:15:28.918Z,17.67
2022-09-10T03:20:31.113Z,22.65
2022-09-10T03:25:33.149Z,22.35
2022-09-10T03:30:36.487Z,23.95
2022-09-10T03:35:39.532Z,23.58
2022-09-10T03:40:41.546Z,27.05
2022-09-10T03:45:45.658Z,24.85
2022-09-10T03:50:49.316Z,25.10
2022-09-10T03:55:53.997Z,26.65
2022-09-10T04:00:56.167Z,23.27
2022-09-10T04:05:58.547Z,25.52
2022-09-10T04:11:04.667Z,21.60
2022-09-10T04:16:07.457Z,25.23
2022-09-10T04:21:09.904Z,21.45
2022-09-10T04:26:17.646Z,29.40
2022-09-10T04:31:22.711Z,24.00
2022-09-10T04:36:27.917Z,25.98
2022-09-10T04:41:30.031Z,27.65
2022-09-10T04:46:32.663Z,27.17
2022-09-10T04:51:36.554Z,32.45
2022-09-10T04:56:38.808Z,27.38
2022-09-10T05:01:41.167Z,29.05
2022-09-10T05:06:43.171Z,29.38
2022-09-10T05:11:49.864Z,26.73
2022-09-10T05:16:55.235Z,30.13
2022-09-10T05:21:57.507Z,28.23
2022-09-10T05:27:00.412Z,29.33
2022-09-10T05:32:02.820Z,30.27
2022-09-10T05:37:05.780Z,24.58
2022-09-10T05:42:08.728Z,26.35
2022-09-10T05:47:13.063Z,28.25
2022-09-10T05:52:15.664Z,27.10
2022-09-10T05:57:18.015Z,25.45
2022-09-10T06:02:24.142Z,22.27
2022-09-10T06:07:28.612Z,25.65
2022-09-10T06:12:30.764Z,21.35
2022-09-10T06:17:34.447Z,23.80
2022-09-10T06:22:37.651Z,22.27
2022-09-10T06:27:40.752Z,22.35
2022-09-10T06:32:43.216Z,17.90
2022-09-10T06:37:45.635Z,21.30
2022-09-10T06:42:49.683Z,20.50
2022-09-10T06:53:36.751Z,19.60
2022-09-10T06:58:40.288Z,16.70
2022-09-10T07:03:45.611Z,18.30
2022-09-10T07:08:49.117Z,15.45
2022-09-10T07:13:53.019Z,18.95
2022-09-10T07:19:00.264Z,15.38
2022-09-10T07:24:15.863Z,16.15
2022-09-10T07:29:31.250Z,12.48
2022-09-10T07:34:34.182Z,16.83
2022-09-10T07:39:36.845Z,12.73
2022-09-10T07:44:39.422Z,12.60
2022-09-10T07:49:41.709Z,14.00
2022-09-10T07:54:44.204Z,9.35
2022-09-10T07:59:47.421Z,11.75
2022-09-10T08:04:54.547Z,11.80
2022-09-10T08:09:57.407Z,8.57
2022-09-10T08:15:00.901Z,9.98
2022-09-10T08:20:07.559Z,10.57
2022-09-10T08:25:13.473Z,8.77
2022-09-10T08:30:17.536Z,8.18
2022-09-10T08:35:20.869Z,7.97
2022-09-10T08:40:23.608Z,8.27
2022-09-10T08:45:32.790Z,8.25
2022-09-10T08:50:44.536Z,6.30
2022-09-10T08:55:57.293Z,8.88
2022-09-10T09:01:04.204Z,8.50
2022-09-10T09:06:20.330Z,6.07
2022-09-10T09:11:29.687Z,6.30
2022-09-10T09:16:49.764Z,6.40
2022-09-10T09:21:56.536Z,9.23
2022-09-10T09:27:10.032Z,7.00
2022-09-10T09:37:29.261Z,5.68
2022-09-10T09:42:42.578Z,6.85
2022-09-10T09:47:46.165Z,7.30
2022-09-10T09:52:54.024Z,5.22
2022-09-10T09:58:20.929Z,5.50
2022-09-10T10:03:29.032Z,5.00
2022-09-10T10:08:37.678Z,7.15
2022-09-10T10:13:45.374Z,10.10
2022-09-10T10:18:48.131Z,7.05
2022-09-10T10:23:50.200Z,6.05
2022-09-10T10:28:58.531Z,4.78
2022-09-10T10:34:35.313Z,3.95
2022-09-10T10:40:01.130Z,7.50
2022-09-10T10:45:18.156Z,7.32
2022-09-10T10:50:36.038Z,6.13
2022-09-10T10:55:53.458Z,6.05
2022-09-10T11:01:02.828Z,5.00
2022-09-10T11:06:10.379Z,6.18
2022-09-10T11:11:18.648Z,6.30
2022-09-10T11:16:29.330Z,6.72
2022-09-10T11:21:39.197Z,10.75
2022-09-10T11:26:45.641Z,4.95
2022-09-10T11:31:56.892Z,6.70
2022-09-10T11:37:09.734Z,3.45
2022-09-10T11:42:19.241Z,5.32
2022-09-10T11:47:26.473Z,3.35
2022-09-10T11:52:31.648Z,3.75
2022-09-10T11:57:55.517Z,4.85
2022-09-10T12:03:35.029Z,3.15
2022-09-10T12:08:55.500Z,3.55
2022-09-10T12:13:58.729Z,4.53
2022-09-10T12:19:04.284Z,4.20
2022-09-10T12:24:25.747Z,4.75
2022-09-10T12:29:36.774Z,5.10
2022-09-10T12:34:40.196Z,3.00
2022-09-10T12:39:42.648Z,4.85
2022-09-10T12:44:45.884Z,4.45
2022-09-10T12:50:06.683Z,4.40
2022-09-10T12:55:31.892Z,4.45
2022-09-10T13:00:44.211Z,3.97
2022-09-10T13:05:50.321Z,4.65
2022-09-10T13:10:56.330Z,4.55
2022-09-10T13:15:58.570Z,6.72
2022-09-10T13:21:23.489Z,6.95
2022-09-10T13:26:28.248Z,6.55
2022-09-10T13:31:42.146Z,6.32
2022-09-10T13:36:59.837Z,6.03
2022-09-10T13:42:20.709Z,5.60
2022-09-10T13:47:31.340Z,8.00
2022-09-10T13:52:36.109Z,7.65
2022-09-10T13:57:45.051Z,8.48
2022-09-10T14:02:52.942Z,8.77
2022-09-10T14:07:57.412Z,7.93
2022-09-10T14:12:59.763Z,9.55
2022-09-10T14:18:01.911Z,7.70
2022-09-10T14:23:07.905Z,10.02
2022-09-10T14:28:15.959Z,4.85
2022-09-10T14:33:35.676Z,3.70
2022-09-10T14:38:40.200Z,5.13
2022-09-10T14:43:42.482Z,3.65
2022-09-10T14:49:01.266Z,6.30
2022-09-10T14:54:03.459Z,5.57
2022-09-10T14:59:15.250Z,3.97
2022-09-10T15:04:20.852Z,2.95
2022-09-10T15:09:23.977Z,3.47
2022-09-10T15:14:26.087Z,3.53
2022-09-10T15:19:28.267Z,5.65
2022-09-10T15:24:39.045Z,6.10
2022-09-10T15:29:57.775Z,7.40
2022-09-10T15:34:59.811Z,4.63
2022-09-10T15:40:03.279Z,4.15
2022-09-10T15:45:05.639Z,6.28
2022-09-10T15:50:09.748Z,6.80
2022-09-10T15:55:12.342Z,5.97
2022-09-10T16:00:14.659Z,4.38
2022-09-10T16:05:16.714Z,4.35
2022-09-10T16:10:18.708Z,2.58
2022-09-10T16:15:20.820Z,2.47
2022-09-10T16:20:22.765Z,5.32
2022-09-10T16:25:24.816Z,3.42
2022-09-10T16:30:26.772Z,3.97
2022-09-10T16:35:28.716Z,5.25
2022-09-10T16:40:30.735Z,4.18
2022-09-10T16:45:32.845Z,3.75
2022-09-10T16:50:35.053Z,4.60
2022-09-10T16:55:37.171Z,5.53
2022-09-10T17:00:40.526Z,3.22
2022-09-10T17:05:44.353Z,4.32
2022-09-10T17:10:46.549Z,3.05
2022-09-10T17:15:48.848Z,4.40
2022-09-10T17:20:52.454Z,3.63
2022-09-10T17:25:54.564Z,4.80
2022-09-10T17:30:56.741Z,3.90
2022-09-10T17:36:01.082Z,3.83
2022-09-10T17:41:04.369Z,4.95
2022-09-10T17:46:09.262Z,5.28
2022-09-10T17:51:17.599Z,5.55
2022-09-10T17:56:20.156Z,7.15
2022-09-10T18:01:28.333Z,5.32
2022-09-10T18:06:32.296Z,6.88
2022-09-10T18:11:37.476Z,6.35
2022-09-10T18:16:39.448Z,4.63
2022-09-10T18:21:43.710Z,4.00
2022-09-10T18:26:47.935Z,6.82
2022-09-10T18:31:55.784Z,6.57
2022-09-10T18:37:00.170Z,6.18
2022-09-10T18:42:02.354Z,6.65
2022-09-10T18:47:17.873Z,4.35
2022-09-10T18:52:29.165Z,4.55
2022-09-10T18:57:31.583Z,6.60
2022-09-10T19:02:33.652Z,8.20
2022-09-10T19:07:35.713Z,6.20
2022-09-10T19:12:37.761Z,5.03
2022-09-10T19:17:40.150Z,7.70
2022-09-10T19:22:42.808Z,6.90
2022-09-10T19:27:45.089Z,7.30
2022-09-10T19:32:47.124Z,5.10
2022-09-10T19:37:49.127Z,7.72
2022-09-10T19:42:51.125Z,5.75
2022-09-10T19:47:53.593Z,7.32
2022-09-10T19:52:55.947Z,7.00
2022-09-10T19:57:59.915Z,9.63
2022-09-10T20:03:02.068Z,5.53
2022-09-10T20:08:05.433Z,9.30
2022-09-10T20:13:08.273Z,6.70
2022-09-10T20:18:11.203Z,6.43
2022-09-10T20:23:13.179Z,11.93
2022-09-10T20:28:15.134Z,12.10
2022-09-10T20:33:17.083Z,10.52
2022-09-10T20:38:20.743Z,11.13
2022-09-10T20:43:22.709Z,12.35
2022-09-10T20:48:25.282Z,11.55
2022-09-10T20:53:27.841Z,9.88
2022-09-10T20:58:31.417Z,11.48
2022-09-10T21:03:33.538Z,10.50
2022-09-10T21:08:37.401Z,13.98
2022-09-10T21:13:47.395Z,18.40
2022-09-10T21:18:54.719Z,13.70
2022-09-10T21:24:05.851Z,14.73
2022-09-10T21:29:14.294Z,12.75
2022-09-10T21:34:17.369Z,9.23
2022-09-10T21:39:19.672Z,13.38
2022-09-10T21:44:23.027Z,15.75
2022-09-10T21:49:25.020Z,15.07
2022-09-10T21:54:27.039Z,14.48
2022-09-10T21:59:29.092Z,15.73
2022-09-10T22:04:31.045Z,11.43
2022-09-10T22:09:33.697Z,11.80
2022-09-10T22:14:35.724Z,12.05
2022-09-10T22:19:37.671Z,14.25
2022-09-10T22:24:39.685Z,12.15
2022-09-10T22:29:41.705Z,11.65
2022-09-10T22:34:43.975Z,9.52
2022-09-10T22:39:45.974Z,10.60
2022-09-10T22:44:48.103Z,12.48
2022-09-10T22:49:50.412Z,15.95
2022-09-10T22:54:52.354Z,12.90
2022-09-10T22:59:54.358Z,13.65
2022-09-10T23:04:57.190Z,13.43
2022-09-10T23:10:01.247Z,13.20
2022-09-10T23:15:03.396Z,12.73
2022-09-10T23:20:06.574Z,13.18
2022-09-10T23:25:09.000Z,12.82
2022-09-10T23:30:11.793Z,15.73
2022-09-10T23:35:13.805Z,13.20
2022-09-10T23:40:15.779Z,14.73
2022-09-10T23:45:17.723Z,14.55
2022-09-10T23:50:19.684Z,13.27
2022-09-10T23:55:21.687Z,13.75
